createdAt,value
2023-04-18T00:00:48.984Z,102914.50
2023-04-18T00:03:17.894Z,102908.97
2023-04-18T00:05:48.257Z,102919.84
2023-04-18T00:08:18.520Z,102919.16
2023-04-18T00:10:47.318Z,102909.78
2023-04-18T00:13:18.421Z,102922.09
2023-04-18T00:15:46.883Z,102919.66
2023-04-18T00:18:17.341Z,102921.53
2023-04-18T00:20:47.182Z,102916.75
2023-04-18T00:23:17.212Z,102919.38
2023-04-18T00:25:45.800Z,102919.72
2023-04-18T00:28:14.538Z,102918.84
2023-04-18T00:30:43.144Z,102919.53
2023-04-18T00:33:11.774Z,102921.72
2023-04-18T00:35:40.358Z,102904.72
2023-04-18T00:38:08.874Z,102915.47
2023-04-18T00:40:38.932Z,102914.97
2023-04-18T00:43:09.261Z,102914.34
2023-04-18T00:45:37.956Z,102918.09
2023-04-18T00:48:06.665Z,102905.13
2023-04-18T00:50:35.116Z,102911.38
2023-04-18T00:53:04.014Z,102912.75
2023-04-18T00:55:32.643Z,102909.81
2023-04-18T00:58:02.971Z,102912.56
2023-04-18T01:00:32.133Z,102911.81
2023-04-18T01:03:00.994Z,102908.09
2023-04-18T01:05:29.638Z,102905.59
2023-04-18T01:08:01.360Z,102908.41
2023-04-18T01:10:31.977Z,102908.75
2023-04-18T01:13:21.690Z,102909.63
2023-04-18T01:15:54.348Z,102909.81
2023-04-18T01:18:24.469Z,102905.38
2023-04-18T01:20:54.964Z,102902.75
2023-04-18T01:23:23.653Z,102901.00
2023-04-18T01:25:53.882Z,102889.56
2023-04-18T01:28:22.985Z,102899.34
2023-04-18T01:30:51.647Z,102894.06
2023-04-18T01:33:19.962Z,102887.25
2023-04-18T01:35:48.354Z,102887.50
2023-04-18T01:38:16.782Z,102883.28
2023-04-18T01:40:45.694Z,102886.09
2023-04-18T01:43:15.464Z,102881.66
2023-04-18T01:45:43.737Z,102883.78
2023-04-18T01:48:12.210Z,102878.38
2023-04-18T01:50:40.733Z,102882.53
2023-04-18T01:53:09.460Z,102878.25
2023-04-18T01:55:38.027Z,102879.31
2023-04-18T01:58:06.506Z,102881.09
2023-04-18T02:00:36.403Z,102879.88
2023-04-18T02:03:05.275Z,102874.13
2023-04-18T02:05:33.681Z,102883.03
2023-04-18T02:08:02.164Z,102884.09
2023-04-18T02:10:30.807Z,102888.56
2023-04-18T02:12:59.303Z,102883.19
2023-04-18T02:15:29.041Z,102882.47
2023-04-18T02:18:00.076Z,102882.69
2023-04-18T02:20:31.706Z,102881.44
2023-04-18T02:23:00.706Z,102882.22
2023-04-18T02:25:29.760Z,102880.66
2023-04-18T02:27:59.374Z,102886.88
2023-04-18T02:30:28.378Z,102878.94
2023-04-18T02:32:59.148Z,102878.81
2023-04-18T02:35:28.936Z,102879.81
2023-04-18T02:37:57.955Z,102879.84
2023-04-18T02:40:26.624Z,102878.22
2023-04-18T02:42:55.337Z,102872.69
2023-04-18T02:45:23.969Z,102870.06
2023-04-18T02:47:55.970Z,102874.47
2023-04-18T02:50:27.279Z,102881.97
2023-04-18T02:52:56.027Z,102875.59
2023-04-18T02:55:27.261Z,102882.91
2023-04-18T02:57:58.219Z,102879.38
2023-04-18T03:00:27.179Z,102880.19
2023-04-18T03:02:56.001Z,102883.69
2023-04-18T03:05:26.397Z,102890.22
2023-04-18T03:07:56.319Z,102894.56
2023-04-18T03:10:25.240Z,102888.41
2023-04-18T03:12:54.012Z,102887.34
2023-04-18T03:15:23.256Z,102886.75
2023-04-18T03:17:52.533Z,102880.44
2023-04-18T03:20:21.973Z,102883.03
2023-04-18T03:22:52.364Z,102880.47
2023-04-18T03:25:20.821Z,102882.28
2023-04-18T03:27:49.428Z,102890.25
2023-04-18T03:30:19.417Z,102893.50
2023-04-18T03:32:49.590Z,102890.59
2023-04-18T03:35:18.745Z,102883.59
2023-04-18T03:37:47.261Z,102892.47
2023-04-18T03:40:17.372Z,102892.34
2023-04-18T03:42:45.802Z,102893.94
2023-04-18T03:45:14.444Z,102894.41
2023-04-18T03:47:43.079Z,102893.44
2023-04-18T03:50:12.503Z,102898.84
2023-04-18T03:52:41.396Z,102898.78
2023-04-18T03:55:11.541Z,102899.66
2023-04-18T03:57:41.780Z,102905.91
2023-04-18T04:00:12.665Z,102907.66
2023-04-18T04:02:41.814Z,102903.41
2023-04-18T04:05:11.187Z,102899.06
2023-04-18T04:07:39.994Z,102907.44
2023-04-18T04:10:09.581Z,102907.19
2023-04-18T04:12:38.270Z,102909.75
2023-04-18T04:15:12.822Z,102907.34
2023-04-18T04:17:41.361Z,102901.25
2023-04-18T04:20:11.375Z,102903.59
2023-04-18T04:22:40.327Z,102915.09
2023-04-18T04:25:10.628Z,102907.53
2023-04-18T04:27:39.019Z,102902.47
2023-04-18T04:30:13.161Z,102907.53
2023-04-18T04:32:44.831Z,102904.06
2023-04-18T04:35:14.515Z,102899.56
2023-04-18T04:37:45.118Z,102894.31
2023-04-18T04:40:16.115Z,102905.94
2023-04-18T04:45:45.809Z,102906.41
2023-04-18T04:48:15.268Z,102904.81
2023-04-18T04:51:14.916Z,102915.91
2023-04-18T04:53:45.032Z,102922.88
2023-04-18T04:56:13.819Z,102913.50
2023-04-18T04:58:42.762Z,102923.06
2023-04-18T05:01:13.413Z,102919.50
2023-04-18T05:03:42.896Z,102914.38
2023-04-18T05:06:11.824Z,102919.13
2023-04-18T05:08:43.704Z,102916.97
2023-04-18T05:11:12.687Z,102917.59
2023-04-18T05:13:42.268Z,102927.44
2023-04-18T05:16:13.289Z,102922.84
2023-04-18T05:18:42.544Z,102922.81
2023-04-18T05:21:11.196Z,102927.00
2023-04-18T05:23:55.771Z,102927.06
2023-04-18T05:26:25.062Z,102930.69
2023-04-18T05:28:54.188Z,102937.19
2023-04-18T05:31:27.207Z,102924.88
2023-04-18T05:33:56.846Z,102944.34
2023-04-18T05:36:25.715Z,102933.00
2023-04-18T05:38:54.641Z,102931.94
2023-04-18T05:41:23.817Z,102940.91
2023-04-18T05:44:02.430Z,102940.28
2023-04-18T05:46:40.705Z,102935.75
2023-04-18T05:49:09.674Z,102941.75
2023-04-18T05:51:38.841Z,102945.84
2023-04-18T05:54:08.223Z,102946.41
2023-04-18T05:56:37.169Z,102947.31
2023-04-18T05:59:06.752Z,102946.53
2023-04-18T06:01:37.059Z,102945.50
2023-04-18T06:04:06.426Z,102947.09
2023-04-18T06:06:35.389Z,102948.78
2023-04-18T06:09:04.354Z,102953.34
2023-04-18T06:11:35.693Z,102948.19
2023-04-18T06:14:05.136Z,102948.63
2023-04-18T06:16:35.226Z,102952.97
2023-04-18T06:19:04.368Z,102951.84
2023-04-18T06:21:34.278Z,102951.47
2023-04-18T06:24:02.928Z,102960.97
2023-04-18T06:26:32.148Z,102957.16
2023-04-18T06:29:00.816Z,102960.91
2023-04-18T06:31:29.757Z,102959.78
2023-04-18T06:33:59.918Z,102959.34
2023-04-18T06:36:28.865Z,102966.13
2023-04-18T06:38:57.406Z,102970.69
2023-04-18T06:41:26.197Z,102975.41
2023-04-18T06:44:03.370Z,102963.00
2023-04-18T06:46:33.063Z,102978.69
2023-04-18T06:49:03.887Z,102976.81
2023-04-18T06:51:32.819Z,102975.94
2023-04-18T06:54:01.480Z,102972.75
2023-04-18T06:56:31.236Z,102973.31
2023-04-18T06:58:59.908Z,102977.88
2023-04-18T07:01:28.404Z,102980.31
2023-04-18T07:03:57.893Z,102980.09
2023-04-18T07:06:28.152Z,102978.47
2023-04-18T07:09:00.314Z,102978.56
2023-04-18T07:11:30.198Z,102978.56
2023-04-18T07:13:58.980Z,102976.06
2023-04-18T07:16:27.825Z,102970.34
2023-04-18T07:18:56.377Z,102969.13
2023-04-18T07:21:25.115Z,102973.59
2023-04-18T07:23:58.470Z,102964.91
2023-04-18T07:26:27.728Z,102972.38
2023-04-18T07:28:56.302Z,102977.69
2023-04-18T07:31:25.878Z,102975.00
2023-04-18T07:33:54.516Z,102964.84
2023-04-18T07:36:23.107Z,102969.38
2023-04-18T07:38:51.965Z,102976.78
2023-04-18T07:41:22.091Z,102980.22
2023-04-18T07:43:50.824Z,102980.13
2023-04-18T07:46:19.394Z,102982.47
2023-04-18T07:48:47.999Z,102985.34
2023-04-18T07:51:16.591Z,102978.16
2023-04-18T07:53:45.648Z,102976.44
2023-04-18T07:56:14.579Z,102974.69
2023-04-18T07:58:44.518Z,102984.00
2023-04-18T08:01:16.275Z,102976.03
2023-04-18T08:03:46.048Z,102972.13
2023-04-18T08:06:15.427Z,102965.81
2023-04-18T08:08:44.298Z,102957.03
2023-04-18T08:11:12.985Z,102969.59
2023-04-18T08:13:50.263Z,102955.91
2023-04-18T08:16:19.278Z,102962.91
2023-04-18T08:18:48.854Z,102973.50
2023-04-18T08:21:17.865Z,102962.28
2023-04-18T08:23:46.801Z,102968.88
2023-04-18T08:26:16.090Z,102984.84
2023-04-18T08:28:46.718Z,102974.44
2023-04-18T08:31:22.490Z,102976.84
2023-04-18T08:33:51.056Z,102979.53
2023-04-18T08:36:19.956Z,102985.47
2023-04-18T08:38:50.678Z,102982.41
2023-04-18T08:41:27.361Z,102984.56
2023-04-18T08:43:57.382Z,103001.41
2023-04-18T08:46:26.571Z,102987.44
2023-04-18T08:48:58.727Z,102986.03
2023-04-18T08:51:30.680Z,102986.88
2023-04-18T08:54:02.760Z,102993.53
2023-04-18T08:56:31.327Z,102989.81
2023-04-18T08:59:01.692Z,102990.53
2023-04-18T09:01:56.581Z,102995.41
2023-04-18T09:04:37.939Z,102995.41
2023-04-18T09:07:11.336Z,102985.50
2023-04-18T09:09:46.773Z,102985.25
2023-04-18T09:12:18.220Z,102981.09
2023-04-18T09:14:50.298Z,102988.25
2023-04-18T09:17:34.178Z,102983.44
2023-04-18T09:20:06.515Z,102977.94
2023-04-18T09:22:48.971Z,102985.50
2023-04-18T09:25:30.621Z,102987.25
2023-04-18T09:28:02.543Z,102979.72
2023-04-18T09:30:40.254Z,102985.31
2023-04-18T09:33:12.020Z,102993.47
2023-04-18T09:35:41.623Z,102981.97
2023-04-18T09:38:11.826Z,102996.34
2023-04-18T09:40:46.126Z,102984.06
2023-04-18T09:43:20.916Z,102978.41
2023-04-18T09:45:53.200Z,102985.50
2023-04-18T09:48:22.995Z,102975.66
2023-04-18T09:50:52.065Z,102964.94
2023-04-18T09:53:21.888Z,102964.72
2023-04-18T09:55:57.476Z,102979.53
2023-04-18T09:58:31.025Z,102974.56
2023-04-18T10:01:01.804Z,102974.25
2023-04-18T10:03:45.604Z,102971.22
2023-04-18T10:06:18.332Z,102964.22
2023-04-18T10:08:49.148Z,102964.56
2023-04-18T10:11:19.287Z,102962.63
2023-04-18T10:13:55.044Z,102959.84
2023-04-18T10:16:25.482Z,102945.41
2023-04-18T10:18:54.047Z,102940.72
2023-04-18T10:21:23.411Z,102944.00
2023-04-18T10:23:52.860Z,102949.44
2023-04-18T10:26:21.620Z,102951.53
2023-04-18T10:28:56.433Z,102948.06
2023-04-18T10:31:27.895Z,102944.56
2023-04-18T10:34:05.185Z,102951.19
2023-04-18T10:36:34.794Z,102941.63
2023-04-18T10:39:20.686Z,102947.38
2023-04-18T10:41:52.512Z,102941.50
2023-04-18T10:44:23.701Z,102939.13
2023-04-18T10:47:28.424Z,102936.59
2023-04-18T10:50:01.478Z,102956.47
2023-04-18T10:52:30.891Z,102956.31
2023-04-18T10:55:33.023Z,102941.91
2023-04-18T10:58:01.766Z,102938.53
2023-04-18T11:00:32.334Z,102937.28
2023-04-18T11:03:02.652Z,102939.19
2023-04-18T11:05:32.014Z,102929.81
2023-04-18T11:08:01.183Z,102928.47
2023-04-18T11:10:30.594Z,102925.03
2023-04-18T11:13:04.776Z,102927.53
2023-04-18T11:15:40.130Z,102922.94
2023-04-18T11:18:10.818Z,102911.47
2023-04-18T11:20:41.721Z,102921.94
2023-04-18T11:23:20.681Z,102914.22
2023-04-18T11:25:54.810Z,102917.56
2023-04-18T11:28:27.428Z,102906.78
2023-04-18T11:31:00.473Z,102915.25
2023-04-18T11:33:32.354Z,102905.59
2023-04-18T11:36:08.423Z,102897.38
2023-04-18T11:38:38.495Z,102907.69
2023-04-18T11:41:13.011Z,102907.88
2023-04-18T11:43:45.818Z,102907.75
2023-04-18T11:46:15.976Z,102904.47
2023-04-18T11:48:47.833Z,102901.25
2023-04-18T11:51:40.159Z,102915.34
2023-04-18T11:54:41.781Z,102908.81
2023-04-18T11:57:23.683Z,102907.72
2023-04-18T11:59:57.832Z,102903.63
2023-04-18T12:02:40.186Z,102904.38
2023-04-18T12:05:27.774Z,102905.91
2023-04-18T12:07:57.733Z,102895.06
2023-04-18T12:10:30.877Z,102903.69
2023-04-18T12:13:14.281Z,102902.13
2023-04-18T12:15:46.380Z,102917.03
2023-04-18T12:18:18.293Z,102904.84
2023-04-18T12:20:54.986Z,102901.91
2023-04-18T12:23:36.071Z,102904.34
2023-04-18T12:26:07.739Z,102911.78
2023-04-18T12:28:37.198Z,102906.16
2023-04-18T12:31:07.802Z,102908.13
2023-04-18T12:33:37.215Z,102901.59
2023-04-18T12:36:12.304Z,102903.19
2023-04-18T12:38:43.712Z,102902.75
2023-04-18T12:41:12.931Z,102889.38
2023-04-18T12:43:41.269Z,102894.16
2023-04-18T12:46:09.928Z,102887.56
2023-04-18T12:48:38.658Z,102893.69
2023-04-18T12:51:08.913Z,102883.75
2023-04-18T12:53:37.914Z,102886.75
2023-04-18T12:56:07.194Z,102892.63
2023-04-18T12:58:36.125Z,102883.09
2023-04-18T13:01:05.128Z,102888.75
2023-04-18T13:03:34.959Z,102889.53
2023-04-18T13:06:04.980Z,102886.63
2023-04-18T13:08:34.934Z,102872.16
2023-04-18T13:11:03.380Z,102882.44
2023-04-18T13:13:33.433Z,102882.94
2023-04-18T13:16:06.912Z,102874.34
2023-04-18T13:18:35.930Z,102871.53
2023-04-18T13:21:04.623Z,102868.69
2023-04-18T13:23:34.840Z,102881.59
2023-04-18T13:26:03.585Z,102884.94
2023-04-18T13:28:32.636Z,102869.94
2023-04-18T13:31:01.398Z,102867.84
2023-04-18T13:33:30.376Z,102861.19
2023-04-18T13:35:59.900Z,102852.56
2023-04-18T13:38:29.296Z,102855.16
2023-04-18T13:41:11.548Z,102867.22
2023-04-18T13:43:41.969Z,102867.59
2023-04-18T13:46:10.702Z,102876.25
2023-04-18T13:48:39.099Z,102866.78
2023-04-18T13:51:08.194Z,102862.19
2023-04-18T13:53:36.791Z,102861.78
2023-04-18T13:56:07.874Z,102859.66
2023-04-18T13:58:36.507Z,102863.41
2023-04-18T14:01:05.711Z,102861.31
2023-04-18T14:03:39.362Z,102861.31
2023-04-18T14:06:09.239Z,102860.53
2023-04-18T14:08:38.017Z,102858.78
2023-04-18T14:11:08.449Z,102854.44
2023-04-18T14:13:37.415Z,102852.38
2023-04-18T14:16:10.919Z,102865.38
2023-04-18T14:18:40.122Z,102857.63
2023-04-18T14:21:08.888Z,102853.47
2023-04-18T14:23:40.882Z,102848.34
2023-04-18T14:26:11.413Z,102844.63
2023-04-18T14:28:40.329Z,102857.91
2023-04-18T14:31:09.952Z,102851.84
2023-04-18T14:33:38.692Z,102841.81
2023-04-18T14:36:09.744Z,102845.47
2023-04-18T14:38:41.243Z,102840.72
2023-04-18T14:41:14.612Z,102837.91
2023-04-18T14:43:49.391Z,102830.38
2023-04-18T14:46:23.870Z,102832.03
2023-04-18T14:48:56.000Z,102819.91
2023-04-18T14:52:16.785Z,102815.78
2023-04-18T14:54:47.553Z,102826.63
2023-04-18T14:57:18.402Z,102820.28
2023-04-18T14:59:47.497Z,102826.13
2023-04-18T15:02:18.786Z,102819.50
2023-04-18T15:04:48.510Z,102808.81
2023-04-18T15:07:17.041Z,102819.59
2023-04-18T15:09:45.678Z,102808.28
2023-04-18T15:12:14.705Z,102809.59
2023-04-18T15:14:45.010Z,102807.91
2023-04-18T15:17:13.828Z,102807.78
2023-04-18T15:19:42.687Z,102809.44
2023-04-18T15:22:11.591Z,102806.28
2023-04-18T15:24:41.621Z,102804.53
2023-04-18T15:27:12.039Z,102810.06
2023-04-18T15:30:22.223Z,102815.78
2023-04-18T15:32:50.996Z,102800.53
2023-04-18T15:35:20.116Z,102798.91
2023-04-18T15:37:49.331Z,102798.63
2023-04-18T15:40:19.122Z,102799.03
2023-04-18T15:42:53.816Z,102787.31
2023-04-18T15:45:24.457Z,102794.38
2023-04-18T15:47:54.262Z,102792.38
2023-04-18T15:50:25.104Z,102787.84
2023-04-18T15:52:56.425Z,102782.09
2023-04-18T15:55:25.021Z,102783.81
2023-04-18T15:57:54.527Z,102784.22
2023-04-18T16:00:24.746Z,102792.34
2023-04-18T16:02:55.145Z,102789.13
2023-04-18T16:05:23.959Z,102785.75
2023-04-18T16:07:54.138Z,102787.41
2023-04-18T16:10:22.962Z,102783.38
2023-04-18T16:12:53.806Z,102792.50
2023-04-18T16:15:27.220Z,102785.19
2023-04-18T16:17:56.246Z,102799.38
2023-04-18T16:20:27.266Z,102791.75
2023-04-18T16:22:56.241Z,102792.03
2023-04-18T16:25:29.357Z,102792.41
2023-04-18T16:27:57.998Z,102789.91
2023-04-18T16:30:29.300Z,102791.28
2023-04-18T16:32:58.427Z,102789.88
2023-04-18T16:35:29.487Z,102791.00
2023-04-18T16:38:00.178Z,102792.34
2023-04-18T16:40:30.859Z,102791.59
2023-04-18T16:42:59.525Z,102798.38
2023-04-18T16:45:29.877Z,102788.88
2023-04-18T16:47:59.330Z,102793.41
2023-04-18T16:50:28.240Z,102796.88
2023-04-18T16:52:59.064Z,102804.03
2023-04-18T16:55:28.229Z,102781.69
2023-04-18T16:58:00.653Z,102793.66
2023-04-18T17:00:34.705Z,102783.50
2023-04-18T17:03:10.159Z,102783.88
2023-04-18T17:05:42.321Z,102781.72
2023-04-18T17:08:11.276Z,102771.16
2023-04-18T17:10:40.109Z,102781.19
2023-04-18T17:13:10.446Z,102779.72
2023-04-18T17:15:42.997Z,102781.28
2023-04-18T17:18:11.953Z,102785.63
2023-04-18T17:20:46.750Z,102783.00
2023-04-18T17:23:17.156Z,102785.56
2023-04-18T17:25:46.562Z,102782.78
2023-04-18T17:28:15.572Z,102786.66
2023-04-18T17:30:47.286Z,102777.78
2023-04-18T17:33:16.166Z,102787.44
2023-04-18T17:35:45.077Z,102779.88
2023-04-18T17:38:14.040Z,102799.31
2023-04-18T17:40:42.728Z,102787.44
2023-04-18T17:43:15.369Z,102776.47
2023-04-18T17:45:46.637Z,102787.75
2023-04-18T17:48:21.484Z,102790.06
2023-04-18T17:50:50.045Z,102794.47
2023-04-18T17:53:20.253Z,102796.44
2023-04-18T17:55:59.418Z,102796.06
2023-04-18T17:58:28.774Z,102799.91
2023-04-18T18:00:59.067Z,102795.03
2023-04-18T18:03:33.255Z,102791.97
2023-04-18T18:06:30.934Z,102805.13
2023-04-18T18:09:00.740Z,102804.78
2023-04-18T18:11:30.595Z,102810.16
2023-04-18T18:14:16.431Z,102812.84
2023-04-18T18:16:53.775Z,102807.09
2023-04-18T18:19:22.723Z,102820.53
2023-04-18T18:21:51.390Z,102819.31
2023-04-18T18:24:24.487Z,102816.59
2023-04-18T18:26:53.837Z,102813.16
2023-04-18T18:29:29.897Z,102816.97
2023-04-18T18:32:01.371Z,102820.78
2023-04-18T18:34:32.000Z,102821.00
2023-04-18T18:37:06.982Z,102822.91
2023-04-18T18:39:39.652Z,102823.00
2023-04-18T18:42:08.548Z,102828.47
2023-04-18T18:44:37.713Z,102822.94
2023-04-18T18:47:07.765Z,102830.56
2023-04-18T18:49:54.909Z,102841.56
2023-04-18T18:52:25.503Z,102838.34
2023-04-18T18:54:55.954Z,102834.69
2023-04-18T18:57:27.268Z,102849.69
2023-04-18T18:59:56.588Z,102848.56
2023-04-18T19:02:29.205Z,102844.41
2023-04-18T19:04:59.333Z,102850.16
2023-04-18T19:07:30.595Z,102843.59
2023-04-18T19:10:00.564Z,102854.78
2023-04-18T19:12:29.639Z,102858.31
2023-04-18T19:14:58.221Z,102866.03
2023-04-18T19:17:31.199Z,102869.97
2023-04-18T19:20:01.719Z,102871.53
2023-04-18T19:22:31.254Z,102865.63
2023-04-18T19:25:01.194Z,102880.81
2023-04-18T19:27:33.353Z,102883.31
2023-04-18T19:30:02.868Z,102882.91
2023-04-18T19:32:33.162Z,102891.88
2023-04-18T19:35:01.710Z,102894.25
2023-04-18T19:37:30.313Z,102888.25
2023-04-18T19:39:59.064Z,102889.09
2023-04-18T19:42:27.497Z,102884.09
2023-04-18T19:44:57.320Z,102894.75
2023-04-18T19:47:26.062Z,102903.28
2023-04-18T19:49:56.298Z,102893.44
2023-04-18T19:52:24.909Z,102889.81
2023-04-18T19:54:55.669Z,102898.78
2023-04-18T19:57:25.705Z,102899.91
2023-04-18T19:59:54.536Z,102898.56
2023-04-18T20:02:23.514Z,102906.53
2023-04-18T20:04:52.339Z,102900.72
2023-04-18T20:07:26.240Z,102910.16
2023-04-18T20:09:55.387Z,102909.47
2023-04-18T20:12:24.479Z,102912.59
2023-04-18T20:14:53.502Z,102909.47
2023-04-18T20:17:22.194Z,102909.13
2023-04-18T20:19:52.060Z,102901.81
2023-04-18T20:22:22.034Z,102907.66
2023-04-18T20:24:52.827Z,102918.63
2023-04-18T20:27:21.609Z,102923.66
2023-04-18T20:29:50.260Z,102921.34
2023-04-18T20:32:18.918Z,102917.31
2023-04-18T20:34:47.733Z,102924.44
2023-04-18T20:37:20.016Z,102925.13
2023-04-18T20:39:49.938Z,102925.81
2023-04-18T20:42:18.903Z,102920.28
2023-04-18T20:44:47.969Z,102928.50
2023-04-18T20:47:17.705Z,102914.97
2023-04-18T20:49:46.617Z,102919.56
2023-04-18T20:52:15.650Z,102916.09
2023-04-18T20:54:44.669Z,102913.25
2023-04-18T20:57:14.933Z,102930.28
2023-04-18T20:59:43.534Z,102929.97
2023-04-18T21:02:12.097Z,102932.63
2023-04-18T21:04:41.065Z,102925.75
2023-04-18T21:07:09.720Z,102925.22
2023-04-18T21:09:38.254Z,102923.41
2023-04-18T21:12:07.697Z,102932.09
2023-04-18T21:14:39.760Z,102942.47
2023-04-18T21:17:09.839Z,102939.59
2023-04-18T21:19:38.281Z,102931.88
2023-04-18T21:22:06.882Z,102937.91
2023-04-18T21:24:36.214Z,102952.72
2023-04-18T21:27:05.208Z,102947.13
2023-04-18T21:29:35.162Z,102946.13
2023-04-18T21:32:06.105Z,102947.31
2023-04-18T21:34:34.927Z,102945.78
2023-04-18T21:37:04.122Z,102947.88
2023-04-18T21:39:32.861Z,102937.91
2023-04-18T21:42:02.014Z,102943.38
2023-04-18T21:44:30.724Z,102945.97
2023-04-18T21:47:01.268Z,102954.78
2023-04-18T21:49:31.519Z,102951.31
2023-04-18T21:52:00.574Z,102950.34
2023-04-18T21:54:31.003Z,102953.66
2023-04-18T21:56:59.649Z,102937.47
2023-04-18T21:59:29.511Z,102945.44
2023-04-18T22:01:58.794Z,102948.97
2023-04-18T22:04:27.794Z,102943.91
2023-04-18T22:06:58.224Z,102943.88
2023-04-18T22:09:26.753Z,102948.78
2023-04-18T22:11:57.118Z,102933.16
2023-04-18T22:14:26.231Z,102946.44
2023-04-18T22:16:55.233Z,102939.38
2023-04-18T22:19:25.140Z,102945.34
2023-04-18T22:21:53.928Z,102934.78
2023-04-18T22:24:25.992Z,102939.13
2023-04-18T22:26:55.065Z,102939.78
2023-04-18T22:29:23.863Z,102942.47
2023-04-18T22:31:56.661Z,102944.91
2023-04-18T22:34:25.342Z,102943.78
2023-04-18T22:36:55.176Z,102939.81
2023-04-18T22:39:26.212Z,102929.31
2023-04-18T22:41:54.825Z,102943.06
2023-04-18T22:44:23.552Z,102931.81
2023-04-18T22:46:54.658Z,102931.34
2023-04-18T22:49:23.389Z,102941.78
2023-04-18T22:51:54.555Z,102943.34
2023-04-18T22:54:24.438Z,102949.34
2023-04-18T22:56:53.456Z,102944.59
2023-04-18T22:59:21.981Z,102953.31
2023-04-18T23:01:50.549Z,102958.00
2023-04-18T23:04:19.272Z,102945.66
2023-04-18T23:06:48.072Z,102956.41
2023-04-18T23:09:19.735Z,102956.06
2023-04-18T23:11:49.499Z,102959.66
2023-04-18T23:14:17.985Z,102961.75
2023-04-18T23:16:46.236Z,102962.44
2023-04-18T23:19:16.959Z,102964.91
2023-04-18T23:21:47.638Z,102965.97
2023-04-18T23:24:17.631Z,102965.06
2023-04-18T23:26:46.194Z,102973.69
2023-04-18T23:29:16.100Z,102960.59
2023-04-18T23:31:44.612Z,102960.25
2023-04-18T23:34:13.372Z,102973.28
2023-04-18T23:36:42.452Z,102970.47
2023-04-18T23:39:12.366Z,102974.22
2023-04-18T23:41:40.957Z,102972.78
2023-04-18T23:44:09.332Z,102974.91
2023-04-18T23:46:39.748Z,102968.50
2023-04-18T23:49:08.671Z,102967.13
2023-04-18T23:51:37.232Z,102959.88
2023-04-18T23:54:06.171Z,102958.63
2023-04-18T23:56:35.357Z,102960.16
2023-04-18T23:59:06.623Z,102964.00
